Terminal Aerodrome Forecast
Issued by NWS Jackson, KY

Home | Current Version | Previous Version | Text Only | Print | Product List | Glossary On
Versions: 1 2 3 4 5 6 7 8 9 10 11 12 13 14 15 16 17 18 19 20 21 22
481
FTUS43 KJKL 072338
TAFJKL
TAF
KJKL 072338Z 0800/0824 VRB06KT P6SM FEW100 SCT250
     FM080700 VRB06KT P6SM BKN090
     FM080900 VRB06KT P6SM -SHSN BKN080
     FM081500 27006KT P6SM FEW060 SCT200=

USA.gov is the U.S. government's official web portal to all federal, state and local government web resources and services.